Time;durP1;ratioP1;P1;durP2;ratioP2;P2;SDS_P1;SDS_P2;PMS_P1;PMS_P2;Temp;Humidity;BMP_temperature;BMP_pressure;BME280_temperature;BME280_humidity;BME280_pressure;Samples;Min_cycle;Max_cycle;Signal;HPM_P1;HPM_P2
2024/01/18 00:02:17;;;;;;;115.43;64.93;;;9.00;99.90;;;;;;6183589;23;20030;-73
2024/01/18 00:04:45;;;;;;;117.10;63.92;;;9.00;99.90;;;;;;6194478;23;20023;-75
2024/01/18 00:07:12;;;;;;;144.77;79.88;;;8.90;99.90;;;;;;6196943;23;20020;-74
2024/01/18 00:09:39;;;;;;;146.95;82.57;;;9.00;99.90;;;;;;6195646;23;20016;-74
2024/01/18 00:12:08;;;;;;;113.28;60.65;;;9.10;99.90;;;;;;6158656;23;20021;-76
2024/01/18 00:14:36;;;;;;;164.57;92.57;;;9.30;99.90;;;;;;6193532;23;20013;-74
2024/01/18 00:17:03;;;;;;;133.80;72.07;;;9.20;99.90;;;;;;6195163;23;20013;-74
2024/01/18 00:19:31;;;;;;;125.70;69.72;;;9.20;99.90;;;;;;6194577;23;20469;-75
2024/01/18 00:21:58;;;;;;;126.28;70.93;;;9.40;99.90;;;;;;6158345;23;20040;-74
2024/01/18 00:24:25;;;;;;;72.72;32.22;;;9.50;99.90;;;;;;6192962;23;20480;-73
2024/01/18 00:26:53;;;;;;;91.53;43.38;;;9.50;99.90;;;;;;6194360;23;20047;-74
2024/01/18 00:29:22;;;;;;;75.53;38.28;;;9.70;99.90;;;;;;6193351;23;20460;-76
2024/01/18 00:31:49;;;;;;;102.85;53.50;;;9.70;99.90;;;;;;6205295;23;20020;-76
2024/01/18 00:34:16;;;;;;;127.30;70.10;;;9.70;99.90;;;;;;6181784;23;20068;-74
2024/01/18 00:36:46;;;;;;;127.93;72.07;;;9.60;99.90;;;;;;6202538;23;20044;-74
2024/01/18 00:39:18;;;;;;;130.13;75.15;;;9.60;99.90;;;;;;6196348;23;20488;-75
2024/01/18 00:41:49;;;;;;;107.97;60.47;;;9.50;99.90;;;;;;6198980;23;20019;-73
2024/01/18 00:44:16;;;;;;;116.45;64.72;;;9.60;99.90;;;;;;6198692;23;20027;-77
2024/01/18 00:46:45;;;;;;;110.43;55.35;;;9.60;99.90;;;;;;6196345;23;20040;-76
2024/01/18 00:49:12;;;;;;;102.63;50.80;;;9.60;99.90;;;;;;6194817;23;20013;-75
2024/01/18 00:51:40;;;;;;;95.05;47.28;;;9.60;99.90;;;;;;6195195;23;20013;-75
2024/01/18 00:54:07;;;;;;;117.13;61.55;;;9.60;99.90;;;;;;6201674;23;20016;-77
2024/01/18 00:56:34;;;;;;;132.48;74.28;;;9.60;99.90;;;;;;6201447;23;20013;-73
2024/01/18 00:59:02;;;;;;;142.40;80.55;;;9.60;99.90;;;;;;6198702;23;20022;-73
2024/01/18 01:01:31;;;;;;;123.18;66.68;;;9.50;99.90;;;;;;6202897;23;20012;-74
2024/01/18 01:04:00;;;;;;;119.05;65.88;;;9.50;99.90;;;;;;6170457;23;20036;-74
2024/01/18 01:06:27;;;;;;;96.28;49.17;;;9.60;99.90;;;;;;6209349;23;20013;-75
2024/01/18 01:08:56;;;;;;;68.00;35.90;;;9.60;99.90;;;;;;6209420;23;20017;-74
2024/01/18 01:11:23;;;;;;;36.78;16.63;;;9.70;99.90;;;;;;6209145;23;20017;-74
2024/01/18 01:13:51;;;;;;;65.05;31.20;;;10.10;99.90;;;;;;6199884;23;20088;-73
2024/01/18 01:16:19;;;;;;;41.17;20.60;;;10.40;99.90;;;;;;6170407;23;20032;-73
2024/01/18 01:18:46;;;;;;;29.20;15.23;;;10.60;99.90;;;;;;6202525;23;20017;-76
2024/01/18 01:21:15;;;;;;;37.63;19.65;;;11.00;99.90;;;;;;6217789;23;20004;-75
2024/01/18 01:23:48;;;;;;;30.42;15.57;;;11.60;99.90;;;;;;6217708;23;20012;-74
2024/01/18 01:26:16;;;;;;;17.27;7.72;;;12.00;1.00;;;;;;6180539;23;20013;-74
2024/01/18 01:28:43;;;;;;;7.35;3.42;;;12.60;1.00;;;;;;6216603;23;20004;-74
2024/01/18 01:31:17;;;;;;;7.78;3.03;;;13.10;1.00;;;;;;6218140;23;19997;-75
2024/01/18 01:33:44;;;;;;;8.57;2.20;;;13.40;3.90;;;;;;6173088;23;20032;-73
2024/01/18 01:36:12;;;;;;;7.50;3.40;;;13.80;1.00;;;;;;6198973;23;20075;-78
2024/01/18 01:38:41;;;;;;;5.78;2.58;;;14.10;1.00;;;;;;6225216;23;20013;-77
2024/01/18 01:41:08;;;;;;;7.10;2.55;;;14.20;1.00;;;;;;6224272;23;20496;-77
2024/01/18 01:43:36;;;;;;;5.28;2.10;;;14.20;99.90;;;;;;6222490;23;20452;-76
2024/01/18 01:46:03;;;;;;;8.43;1.85;;;14.30;1.00;;;;;;6222440;23;20031;-77
2024/01/18 01:48:31;;;;;;;6.35;1.80;;;14.40;1.00;;;;;;6222140;23;20039;-79
2024/01/18 01:50:59;;;;;;;5.03;1.70;;;14.60;99.90;;;;;;6186433;23;20449;-77
2024/01/18 01:53:26;;;;;;;8.05;1.60;;;14.60;44.50;;;;;;6222953;23;20012;-77
2024/01/18 01:55:56;;;;;;;6.55;1.33;;;14.70;1.00;;;;;;6221727;23;20389;-78
2024/01/18 01:58:31;;;;;;;6.03;1.55;;;14.90;1.00;;;;;;6223475;23;20021;-77
2024/01/18 02:00:59;;;;;;;7.15;1.77;;;15.00;1.00;;;;;;6224024;23;20016;-76
2024/01/18 02:03:31;;;;;;;9.23;1.88;;;15.00;99.90;;;;;;6223793;23;20453;-78
2024/01/18 02:05:58;;;;;;;5.32;1.75;;;15.00;99.90;;;;;;6222774;23;20043;-77
2024/01/18 02:08:27;;;;;;;6.10;1.73;;;14.90;99.90;;;;;;6222670;23;20012;-77
2024/01/18 02:10:56;;;;;;;5.88;1.80;;;15.00;99.90;;;;;;6223244;23;20016;-76
2024/01/18 02:13:24;;;;;;;5.53;2.22;;;15.00;99.90;;;;;;6222270;23;20012;-75
2024/01/18 02:15:52;;;;;;;8.98;2.10;;;14.90;99.90;;;;;;6221673;23;20681;-74
2024/01/18 02:18:20;;;;;;;5.40;2.13;;;14.80;99.90;;;;;;6222267;23;20024;-78
2024/01/18 02:20:47;;;;;;;7.35;2.47;;;14.80;99.90;;;;;;6222449;23;20017;-78
2024/01/18 02:23:16;;;;;;;8.93;2.00;;;14.80;99.90;;;;;;6222155;23;20016;-78
2024/01/18 02:25:45;;;;;;;6.60;1.90;;;14.80;99.90;;;;;;6221212;23;20024;-76
2024/01/18 02:28:12;;;;;;;5.22;1.92;;;14.80;99.90;;;;;;6221638;23;20063;-76
2024/01/18 02:30:40;;;;;;;6.32;2.00;;;14.90;99.90;;;;;;6222159;23;20487;-77
2024/01/18 02:33:07;;;;;;;6.45;2.20;;;14.90;99.90;;;;;;6227528;23;20020;-76
2024/01/18 02:35:35;;;;;;;6.60;2.03;;;15.00;99.90;;;;;;6242235;23;20023;-76
2024/01/18 02:38:02;;;;;;;5.75;1.90;;;15.00;99.90;;;;;;6243107;23;20043;-77
2024/01/18 02:40:30;;;;;;;5.63;1.73;;;15.10;71.50;;;;;;6231355;23;20023;-79
2024/01/18 02:42:59;;;;;;;8.70;1.73;;;15.00;97.40;;;;;;6221990;23;20009;-78
2024/01/18 02:45:26;;;;;;;7.22;2.00;;;15.00;99.90;;;;;;6184576;23;20095;-75
2024/01/18 02:47:54;;;;;;;6.38;1.95;;;15.00;99.90;;;;;;6222158;23;20433;-76
2024/01/18 02:50:21;;;;;;;5.78;2.38;;;14.90;99.90;;;;;;6186254;23;20021;-76
2024/01/18 02:52:48;;;;;;;7.13;1.90;;;15.00;93.40;;;;;;6222785;23;20008;-76
2024/01/18 02:55:17;;;;;;;5.28;2.00;;;15.10;23.10;;;;;;6221174;23;20023;-75
2024/01/18 02:57:45;;;;;;;8.60;2.05;;;15.10;9.00;;;;;;6221841;23;20019;-77
2024/01/18 03:00:15;;;;;;;6.03;1.52;;;15.30;1.00;;;;;;6221347;23;20091;-75
2024/01/18 03:02:42;;;;;;;7.88;2.35;;;15.40;1.00;;;;;;6230575;23;20021;-77
2024/01/18 03:05:09;;;;;;;9.15;2.10;;;15.30;1.00;;;;;;6224494;23;20024;-77
2024/01/18 03:07:37;;;;;;;4.13;1.40;;;15.20;1.00;;;;;;6224452;23;20013;-78
2024/01/18 03:10:05;;;;;;;10.20;2.63;;;15.20;1.00;;;;;;6224274;23;20052;-77
2024/01/18 03:12:37;;;;;;;5.28;1.58;;;15.20;1.00;;;;;;6224752;23;20021;-75
2024/01/18 03:15:05;;;;;;;4.22;2.08;;;15.20;1.00;;;;;;6223805;23;20027;-78
2024/01/18 03:17:34;;;;;;;11.07;1.85;;;15.20;1.00;;;;;;6223148;23;20020;-75
2024/01/18 03:20:06;;;;;;;3.47;1.35;;;15.20;1.00;;;;;;6223722;23;20020;-78
2024/01/18 03:22:35;;;;;;;9.07;1.42;;;15.20;1.00;;;;;;6223448;23;20019;-77
2024/01/18 03:25:02;;;;;;;3.67;1.60;;;15.20;1.00;;;;;;6223262;23;20439;-76
2024/01/18 03:27:31;;;;;;;4.53;1.30;;;15.30;1.00;;;;;;6223509;23;20070;-78
2024/01/18 03:29:58;;;;;;;5.35;1.30;;;15.30;1.00;;;;;;6186236;23;20012;-76
2024/01/18 03:32:26;;;;;;;7.05;1.27;;;15.30;1.00;;;;;;6223369;23;20087;-77
2024/01/18 03:34:55;;;;;;;11.38;1.75;;;15.60;1.00;;;;;;6222776;23;20020;-76
2024/01/18 03:37:23;;;;;;;4.38;1.10;;;15.80;1.00;;;;;;6223303;23;20017;-77
2024/01/18 03:39:50;;;;;;;4.72;1.15;;;15.90;1.00;;;;;;6222725;23;20039;-74
2024/01/18 03:42:18;;;;;;;4.75;1.40;;;15.90;1.00;;;;;;6186538;23;20043;-77
2024/01/18 03:44:45;;;;;;;7.88;1.83;;;15.70;1.00;;;;;;6222634;23;20013;-77
2024/01/18 03:47:13;;;;;;;4.40;1.45;;;15.70;1.00;;;;;;6186415;23;20025;-77
2024/01/18 03:49:42;;;;;;;5.60;1.63;;;15.70;1.00;;;;;;6222871;23;20020;-79
2024/01/18 03:52:12;;;;;;;5.95;1.42;;;15.60;1.00;;;;;;6223261;23;20012;-77
2024/01/18 03:54:40;;;;;;;4.68;1.30;;;15.60;1.00;;;;;;6186751;23;20319;-75
2024/01/18 03:57:07;;;;;;;3.70;1.20;;;15.50;1.00;;;;;;6222414;23;20017;-77
2024/01/18 03:59:35;;;;;;;5.18;1.67;;;15.60;1.00;;;;;;6223073;23;20331;-77
2024/01/18 04:02:03;;;;;;;4.20;1.08;;;15.60;1.00;;;;;;6223568;23;20016;-75
2024/01/18 04:04:30;;;;;;;2.67;1.20;;;15.40;1.00;;;;;;6185805;23;20016;-77
2024/01/18 04:06:58;;;;;;;5.30;1.20;;;15.40;1.00;;;;;;6222923;23;20015;-75
2024/01/18 04:09:27;;;;;;;2.45;1.02;;;15.40;1.00;;;;;;6223631;23;20012;-76
2024/01/18 04:11:55;;;;;;;5.25;1.30;;;15.40;1.00;;;;;;6225945;23;20012;-76
2024/01/18 04:14:23;;;;;;;5.18;1.25;;;15.50;1.00;;;;;;6194788;23;20020;-78
2024/01/18 04:16:50;;;;;;;4.70;1.30;;;15.50;1.00;;;;;;6233253;23;20064;-79
2024/01/18 04:19:18;;;;;;;7.78;1.65;;;15.60;1.00;;;;;;6223083;23;20017;-78
2024/01/18 04:21:46;;;;;;;4.72;2.05;;;15.60;1.00;;;;;;6186494;23;20044;-76
2024/01/18 04:24:14;;;;;;;5.50;2.00;;;15.50;1.00;;;;;;6222786;23;20040;-77
2024/01/18 04:26:43;;;;;;;3.47;1.00;;;15.50;1.00;;;;;;6222907;23;20421;-76
2024/01/18 04:29:12;;;;;;;2.72;1.00;;;15.60;1.00;;;;;;6222847;23;20095;-75
2024/01/18 04:31:40;;;;;;;3.55;1.00;;;15.80;1.00;;;;;;6222720;23;20023;-76
2024/01/18 04:34:08;;;;;;;3.25;0.98;;;15.70;1.00;;;;;;6225304;23;20016;-77
2024/01/18 04:36:35;;;;;;;2.58;1.02;;;15.70;1.00;;;;;;6230374;23;20013;-77
2024/01/18 04:39:02;;;;;;;3.30;0.70;;;15.70;1.00;;;;;;6230872;23;20036;-77
2024/01/18 04:41:30;;;;;;;2.67;0.77;;;15.80;1.00;;;;;;6231606;23;20016;-78
2024/01/18 04:43:59;;;;;;;1.95;0.80;;;15.80;1.00;;;;;;6204301;23;20021;-78
2024/01/18 04:46:26;;;;;;;1.80;0.60;;;15.70;1.00;;;;;;6225270;23;20456;-76
2024/01/18 04:48:54;;;;;;;1.88;0.75;;;15.70;1.00;;;;;;6224637;23;20013;-76
2024/01/18 04:51:21;;;;;;;3.28;1.08;;;15.70;1.00;;;;;;6231394;23;20027;-78
2024/01/18 04:53:49;;;;;;;2.45;0.85;;;15.60;1.00;;;;;;6237057;23;20108;-76
2024/01/18 04:56:17;;;;;;;3.20;0.70;;;15.60;1.00;;;;;;6240745;23;20032;-77
2024/01/18 04:58:44;;;;;;;2.60;1.00;;;15.80;1.00;;;;;;6228353;23;20425;-76
2024/01/18 05:01:13;;;;;;;3.17;1.00;;;15.70;1.00;;;;;;6222693;23;20020;-76
2024/01/18 05:03:41;;;;;;;4.82;1.50;;;15.70;1.00;;;;;;6222770;23;20016;-78
2024/01/18 05:06:09;;;;;;;5.00;1.35;;;15.80;1.00;;;;;;6223571;23;20044;-79
2024/01/18 05:08:36;;;;;;;3.47;1.17;;;15.90;1.00;;;;;;6223771;23;20393;-76
2024/01/18 05:11:04;;;;;;;5.45;1.83;;;15.90;1.00;;;;;;6223281;23;20112;-77
2024/01/18 05:13:33;;;;;;;5.53;1.42;;;15.80;1.00;;;;;;6186150;23;20020;-77
2024/01/18 05:16:01;;;;;;;5.35;1.50;;;15.80;1.00;;;;;;6222499;23;20021;-78
2024/01/18 05:18:30;;;;;;;5.80;1.90;;;15.70;1.00;;;;;;6223207;23;20012;-77
2024/01/18 05:20:57;;;;;;;4.63;1.73;;;15.60;1.00;;;;;;6222803;23;20096;-76
2024/01/18 05:23:25;;;;;;;6.18;2.15;;;15.60;1.00;;;;;;6185840;23;20017;-76
2024/01/18 05:25:53;;;;;;;5.07;1.67;;;15.70;1.00;;;;;;6221777;23;20222;-78
2024/01/18 05:28:20;;;;;;;7.57;2.67;;;15.70;1.00;;;;;;6227064;23;20012;-77
2024/01/18 05:30:50;;;;;;;9.07;2.72;;;15.70;1.00;;;;;;6222308;23;20019;-76
2024/01/18 05:33:18;;;;;;;6.82;2.30;;;15.60;1.00;;;;;;6222136;23;20096;-77
2024/01/18 05:35:46;;;;;;;7.50;2.63;;;15.70;1.00;;;;;;6221581;23;20044;-76
2024/01/18 05:38:14;;;;;;;8.93;2.47;;;15.70;1.00;;;;;;6222124;23;20021;-77
2024/01/18 05:40:41;;;;;;;6.03;2.38;;;15.70;1.00;;;;;;6222400;23;20051;-76
2024/01/18 05:43:09;;;;;;;11.63;2.92;;;15.70;1.00;;;;;;6221499;23;20021;-78
2024/01/18 05:45:37;;;;;;;10.13;3.08;;;15.60;1.00;;;;;;6221632;23;20043;-76
2024/01/18 05:48:05;;;;;;;15.30;6.05;;;15.50;1.00;;;;;;6221853;23;20088;-76
2024/01/18 05:50:32;;;;;;;12.95;3.80;;;15.50;1.00;;;;;;6211309;23;20021;-76
2024/01/18 05:53:01;;;;;;;8.50;2.72;;;15.50;1.00;;;;;;6222266;23;20013;-76
2024/01/18 05:55:29;;;;;;;9.98;3.22;;;15.50;1.00;;;;;;6184214;23;20072;-74
2024/01/18 05:57:56;;;;;;;8.90;2.88;;;15.50;1.00;;;;;;6222104;23;20021;-76
2024/01/18 06:00:24;;;;;;;15.52;3.25;;;15.40;1.00;;;;;;6221575;23;20030;-77
2024/01/18 06:02:52;;;;;;;8.05;3.00;;;15.30;1.00;;;;;;6233812;23;20096;-76
2024/01/18 06:05:19;;;;;;;9.45;2.75;;;15.30;1.00;;;;;;6193566;23;20021;-77
2024/01/18 06:07:47;;;;;;;8.75;2.80;;;15.10;1.00;;;;;;6229934;23;20115;-76
2024/01/18 06:10:17;;;;;;;10.57;3.50;;;15.00;1.00;;;;;;6228011;23;20023;-77
2024/01/18 06:12:45;;;;;;;9.07;4.32;;;14.90;1.00;;;;;;6222895;23;20423;-76
2024/01/18 06:15:13;;;;;;;11.52;4.10;;;14.80;1.00;;;;;;6221760;23;20437;-75
2024/01/18 06:17:40;;;;;;;8.63;3.85;;;14.70;1.00;;;;;;6222100;23;20091;-75
2024/01/18 06:20:08;;;;;;;15.30;6.97;;;14.70;1.00;;;;;;6222182;23;20020;-78
2024/01/18 06:22:36;;;;;;;8.77;3.90;;;14.70;1.00;;;;;;6221886;23;20443;-78
2024/01/18 06:25:04;;;;;;;7.47;3.63;;;14.70;1.00;;;;;;6221579;23;20115;-78
2024/01/18 06:27:35;;;;;;;13.23;5.35;;;14.70;1.00;;;;;;6221881;23;20013;-78
2024/01/18 06:30:03;;;;;;;17.70;8.30;;;15.00;1.00;;;;;;6185145;23;20021;-78
2024/01/18 06:32:30;;;;;;;15.25;6.80;;;14.90;1.00;;;;;;6221157;23;20027;-77
2024/01/18 06:34:59;;;;;;;18.35;9.23;;;14.80;1.00;;;;;;6221417;23;20434;-77
2024/01/18 06:37:26;;;;;;;16.73;8.10;;;14.70;1.00;;;;;;6220985;23;20016;-77
2024/01/18 06:39:54;;;;;;;18.90;9.57;;;14.90;1.00;;;;;;6226193;23;20017;-77
2024/01/18 06:42:21;;;;;;;18.38;9.68;;;15.00;1.00;;;;;;6186934;23;20566;-77
2024/01/18 06:44:51;;;;;;;19.63;10.65;;;14.90;1.00;;;;;;6223027;23;20124;-76
2024/01/18 06:47:18;;;;;;;23.23;10.40;;;14.80;1.00;;;;;;6186836;23;20095;-76
2024/01/18 06:49:46;;;;;;;21.58;11.13;;;14.60;1.00;;;;;;6223193;23;20017;-78
2024/01/18 06:52:28;;;;;;;24.88;12.32;;;14.40;1.00;;;;;;6225660;23;20017;-77
2024/01/18 06:54:56;;;;;;;31.73;16.08;;;14.30;1.00;;;;;;6226985;23;20375;-78
2024/01/18 06:57:23;;;;;;;56.17;27.45;;;14.30;1.00;;;;;;6189333;23;20105;-78
2024/01/18 06:59:54;;;;;;;38.25;21.13;;;14.20;1.00;;;;;;6233156;23;20021;-78
2024/01/18 07:02:21;;;;;;;35.60;19.40;;;14.10;1.00;;;;;;6231008;23;20013;-77
2024/01/18 07:04:49;;;;;;;62.55;28.67;;;14.10;1.00;;;;;;6222583;23;20059;-77
2024/01/18 07:07:17;;;;;;;52.22;26.00;;;14.00;1.00;;;;;;6222019;23;20017;-78
2024/01/18 07:09:45;;;;;;;59.80;28.63;;;14.00;1.00;;;;;;6223404;23;20019;-75
2024/01/18 07:12:12;;;;;;;72.75;35.83;;;14.00;1.00;;;;;;6223821;23;20441;-76
2024/01/18 07:14:40;;;;;;;70.60;36.08;;;13.80;8.80;;;;;;6223837;23;20457;-79
2024/01/18 07:17:10;;;;;;;39.15;21.88;;;13.70;99.90;;;;;;6223844;23;20013;-77
2024/01/18 07:19:38;;;;;;;54.58;28.13;;;13.60;19.20;;;;;;6232278;23;20062;-76
2024/01/18 07:22:05;;;;;;;77.57;42.85;;;13.70;18.10;;;;;;6246900;23;20017;-78
2024/01/18 07:24:33;;;;;;;74.38;42.63;;;13.70;44.80;;;;;;6198651;23;20123;-76
2024/01/18 07:27:01;;;;;;;78.32;44.20;;;13.60;99.90;;;;;;6231043;23;20024;-79
2024/01/18 07:29:28;;;;;;;106.80;56.72;;;13.50;99.90;;;;;;6226078;23;20102;-76
2024/01/18 07:31:56;;;;;;;65.72;31.88;;;13.40;99.90;;;;;;6225176;23;20016;-77
2024/01/18 07:34:26;;;;;;;72.63;36.95;;;13.60;99.90;;;;;;6224814;23;20027;-77
2024/01/18 07:36:54;;;;;;;68.93;33.85;;;13.80;1.00;;;;;;6224090;23;20020;-76
2024/01/18 07:39:26;;;;;;;141.52;73.88;;;14.00;1.00;;;;;;6231496;23;20013;-76
2024/01/18 07:42:00;;;;;;;120.32;68.85;;;13.90;1.00;;;;;;6230625;23;20012;-78
2024/01/18 07:44:28;;;;;;;111.75;62.58;;;13.70;99.90;;;;;;6223309;23;20088;-76
2024/01/18 07:46:55;;;;;;;137.80;72.07;;;13.60;99.90;;;;;;6223178;23;20090;-77
2024/01/18 07:49:24;;;;;;;101.47;55.92;;;13.50;99.90;;;;;;6223249;23;20040;-77
2024/01/18 07:51:52;;;;;;;68.22;36.53;;;13.40;1.00;;;;;;6223293;23;20048;-77
2024/01/18 07:54:19;;;;;;;84.10;44.85;;;13.40;99.90;;;;;;6223055;23;20024;-77
2024/01/18 07:56:47;;;;;;;98.13;53.70;;;13.40;99.90;;;;;;6223327;23;20035;-77
2024/01/18 07:59:15;;;;;;;77.35;42.20;;;13.40;99.90;;;;;;6186812;23;20434;-77
2024/01/18 08:01:43;;;;;;;65.60;35.28;;;13.30;1.00;;;;;;6187235;23;20079;-78
2024/01/18 08:04:11;;;;;;;77.85;44.83;;;13.40;99.90;;;;;;6195513;23;20096;-76
2024/01/18 08:06:42;;;;;;;91.05;51.85;;;13.50;99.90;;;;;;6234102;23;20104;-79
2024/01/18 08:09:11;;;;;;;85.50;52.33;;;13.60;99.90;;;;;;6188077;23;20051;-78
2024/01/18 08:11:38;;;;;;;77.47;44.92;;;13.60;99.90;;;;;;6224313;23;20016;-78
2024/01/18 08:14:06;;;;;;;87.35;49.90;;;13.70;99.90;;;;;;6223190;23;20402;-77
2024/01/18 08:16:33;;;;;;;76.78;44.90;;;13.80;99.90;;;;;;6224265;23;20098;-77
2024/01/18 08:19:01;;;;;;;82.10;48.55;;;13.80;99.90;;;;;;6223961;23;20564;-77
2024/01/18 08:21:28;;;;;;;58.47;34.25;;;14.00;38.00;;;;;;6190235;23;20016;-78
2024/01/18 08:23:57;;;;;;;62.08;37.63;;;14.20;24.20;;;;;;6227140;23;20043;-77
2024/01/18 08:26:25;;;;;;;59.88;32.00;;;14.50;1.00;;;;;;6191059;23;20024;-78
2024/01/18 08:28:52;;;;;;;47.50;24.00;;;14.70;1.00;;;;;;6224203;23;20034;-76
2024/01/18 08:31:19;;;;;;;49.58;29.27;;;15.10;1.00;;;;;;6223717;23;20015;-77
2024/01/18 08:33:47;;;;;;;54.47;28.98;;;15.30;1.00;;;;;;6223033;23;20013;-77
2024/01/18 08:36:14;;;;;;;53.80;31.50;;;15.60;1.00;;;;;;6223597;23;20031;-76
2024/01/18 08:38:42;;;;;;;50.85;26.15;;;15.80;1.00;;;;;;6227689;23;20017;-77
2024/01/18 08:41:11;;;;;;;45.95;24.75;;;16.00;1.00;;;;;;6237585;23;20445;-77
2024/01/18 08:43:39;;;;;;;46.10;26.63;;;16.20;1.00;;;;;;6240991;23;20036;-77
2024/01/18 08:46:07;;;;;;;42.25;26.70;;;16.50;1.00;;;;;;6229170;23;20020;-78
2024/01/18 08:48:35;;;;;;;48.10;24.38;;;16.60;1.00;;;;;;6229811;23;20401;-76
2024/01/18 08:51:03;;;;;;;39.33;22.40;;;16.80;1.00;;;;;;6200649;23;20024;-77
2024/01/18 08:53:32;;;;;;;35.53;21.30;;;17.00;1.00;;;;;;6239477;23;20017;-78
2024/01/18 08:56:00;;;;;;;35.55;19.38;;;17.30;1.00;;;;;;6234721;23;20027;-78
2024/01/18 08:58:28;;;;;;;38.38;16.92;;;17.40;1.00;;;;;;6230163;23;20448;-78
2024/01/18 09:00:56;;;;;;;32.72;15.63;;;17.60;1.00;;;;;;6188082;23;20031;-79
2024/01/18 09:03:23;;;;;;;36.00;21.27;;;17.70;1.00;;;;;;6186373;23;20040;-77
2024/01/18 09:05:51;;;;;;;30.77;18.02;;;17.90;1.00;;;;;;6225590;23;20023;-77
2024/01/18 09:08:19;;;;;;;35.08;18.75;;;18.10;1.00;;;;;;6231493;23;20630;-77
2024/01/18 09:10:46;;;;;;;34.47;15.15;;;18.30;1.00;;;;;;6240575;23;20035;-77
2024/01/18 09:13:14;;;;;;;26.00;11.88;;;18.60;1.00;;;;;;6246933;23;20009;-78
2024/01/18 09:15:43;;;;;;;27.55;12.32;;;18.90;1.00;;;;;;6208012;23;20016;-78
2024/01/18 09:18:13;;;;;;;25.80;12.68;;;18.90;1.00;;;;;;6244534;23;20019;-79
2024/01/18 09:20:45;;;;;;;24.40;13.20;;;18.90;1.00;;;;;;6232539;23;20012;-76
2024/01/18 09:23:13;;;;;;;22.80;11.13;;;18.90;1.00;;;;;;6224193;23;20047;-77
2024/01/18 09:25:40;;;;;;;22.73;10.35;;;19.00;1.00;;;;;;6222903;23;20013;-79
2024/01/18 09:28:09;;;;;;;23.27;10.13;;;19.10;1.00;;;;;;6233400;23;20019;-77
2024/01/18 09:30:36;;;;;;;18.30;9.55;;;19.00;1.00;;;;;;6232548;23;20558;-77
2024/01/18 09:33:06;;;;;;;23.40;9.85;;;19.10;1.00;;;;;;6223223;23;20051;-75
2024/01/18 09:35:33;;;;;;;27.38;12.05;;;19.00;1.00;;;;;;6222078;23;20024;-77
2024/01/18 09:38:02;;;;;;;27.55;12.15;;;19.00;1.00;;;;;;6222388;23;20433;-76
2024/01/18 09:40:30;;;;;;;27.67;10.65;;;19.00;1.00;;;;;;6222892;23;20449;-78
2024/01/18 09:43:00;;;;;;;17.13;4.72;;;18.80;1.00;;;;;;6223198;23;20038;-79
2024/01/18 09:45:30;;;;;;;16.95;6.13;;;18.80;1.00;;;;;;6225211;23;20017;-78
2024/01/18 09:47:58;;;;;;;13.18;4.60;;;18.70;1.00;;;;;;6186129;23;20020;-78
2024/01/18 09:50:27;;;;;;;15.60;7.00;;;18.70;1.00;;;;;;6222989;23;20094;-78
2024/01/18 09:52:55;;;;;;;27.67;14.15;;;18.60;1.00;;;;;;6222457;23;20008;-78
2024/01/18 09:55:23;;;;;;;19.33;6.32;;;18.50;1.00;;;;;;6185573;23;20071;-76
2024/01/18 09:57:55;;;;;;;16.40;4.50;;;18.40;1.00;;;;;;6222422;23;20012;-77
2024/01/18 10:00:27;;;;;;;14.07;4.50;;;18.40;1.00;;;;;;6223472;23;20013;-78
2024/01/18 10:02:55;;;;;;;14.30;4.72;;;18.40;1.00;;;;;;6222910;23;20016;-78
2024/01/18 10:05:25;;;;;;;19.60;6.90;;;18.30;1.00;;;;;;6223155;23;20504;-77
2024/01/18 10:07:54;;;;;;;16.90;5.93;;;18.40;1.00;;;;;;6223753;23;20055;-77
2024/01/18 10:10:21;;;;;;;18.73;6.05;;;18.40;1.00;;;;;;6224259;23;20441;-79
2024/01/18 10:12:49;;;;;;;18.90;6.45;;;18.30;1.00;;;;;;6222335;23;20040;-79
2024/01/18 10:15:35;;;;;;;21.05;7.68;;;18.20;1.00;;;;;;6185354;23;20088;-78
2024/01/18 10:18:04;;;;;;;13.10;5.30;;;18.40;1.00;;;;;;6211381;23;20028;-78
2024/01/18 10:20:32;;;;;;;11.88;4.97;;;18.30;1.00;;;;;;6222617;23;20035;-78
2024/01/18 10:23:02;;;;;;;13.95;4.20;;;18.40;1.00;;;;;;6223008;23;20021;-77
2024/01/18 10:25:32;;;;;;;10.82;3.25;;;18.40;1.00;;;;;;6222769;23;20349;-77
2024/01/18 10:27:59;;;;;;;15.10;3.53;;;18.40;1.00;;;;;;6222793;23;20020;-76
2024/01/18 10:30:27;;;;;;;10.20;3.72;;;18.50;1.00;;;;;;6222588;23;20100;-77
2024/01/18 10:32:55;;;;;;;8.65;3.33;;;18.50;1.00;;;;;;6223241;23;20091;-76
2024/01/18 10:35:25;;;;;;;13.90;3.65;;;18.50;1.00;;;;;;6224226;23;20023;-78
2024/01/18 10:38:06;;;;;;;9.43;3.08;;;18.50;1.00;;;;;;6222016;23;20461;-77
2024/01/18 10:40:36;;;;;;;10.88;3.47;;;18.50;1.00;;;;;;6224282;23;20452;-77
2024/01/18 10:43:04;;;;;;;9.50;4.40;;;18.70;1.00;;;;;;6230820;23;20012;-79
2024/01/18 10:45:33;;;;;;;13.07;3.70;;;18.70;1.00;;;;;;6228441;23;20020;-79
2024/01/18 10:48:01;;;;;;;14.73;5.97;;;18.70;1.00;;;;;;6229313;23;20022;-79
2024/01/18 10:50:31;;;;;;;14.50;4.25;;;18.90;1.00;;;;;;6229320;23;20028;-78
2024/01/18 10:52:59;;;;;;;7.07;2.88;;;18.90;1.00;;;;;;6223996;23;20071;-77
2024/01/18 10:55:28;;;;;;;14.13;5.10;;;18.90;1.00;;;;;;6221228;23;20043;-78
2024/01/18 10:57:55;;;;;;;10.50;2.97;;;18.90;1.00;;;;;;6222263;23;20017;-78
2024/01/18 11:00:23;;;;;;;9.18;2.90;;;18.90;1.00;;;;;;6185403;23;20338;-77
2024/01/18 11:02:51;;;;;;;10.00;3.88;;;18.90;1.00;;;;;;6224581;23;20020;-78
2024/01/18 11:05:21;;;;;;;12.73;3.83;;;18.90;1.00;;;;;;6222617;23;20017;-77
2024/01/18 11:07:49;;;;;;;12.00;3.90;;;18.90;1.00;;;;;;6223462;23;20016;-79
2024/01/18 11:10:17;;;;;;;8.00;3.40;;;18.80;1.00;;;;;;6225523;23;20017;-76
2024/01/18 11:12:49;;;;;;;13.93;4.05;;;18.90;1.00;;;;;;6223384;23;20068;-78
2024/01/18 11:15:17;;;;;;;9.93;2.70;;;18.90;1.00;;;;;;6222866;23;20580;-78
2024/01/18 11:17:46;;;;;;;12.85;4.03;;;18.90;1.00;;;;;;6222677;23;20499;-79
2024/01/18 11:20:14;;;;;;;13.45;4.47;;;18.90;1.00;;;;;;6222275;23;20445;-78
2024/01/18 11:22:42;;;;;;;9.05;2.45;;;18.80;1.00;;;;;;6222511;23;20011;-77
2024/01/18 11:25:11;;;;;;;9.57;3.17;;;18.80;1.00;;;;;;6186210;23;20023;-78
2024/01/18 11:27:40;;;;;;;15.27;4.00;;;18.80;1.00;;;;;;6187520;23;20032;-77
2024/01/18 11:30:13;;;;;;;10.05;2.97;;;18.70;1.00;;;;;;6223577;23;20021;-78
2024/01/18 11:32:41;;;;;;;12.38;3.67;;;18.60;1.00;;;;;;6187619;23;20741;-78
2024/01/18 11:35:11;;;;;;;10.93;3.80;;;18.70;1.00;;;;;;6186322;23;20028;-78
2024/01/18 11:37:39;;;;;;;12.65;3.58;;;18.70;1.00;;;;;;6223763;23;20021;-77
2024/01/18 11:40:09;;;;;;;11.18;3.92;;;18.70;1.00;;;;;;6223849;23;20017;-77
2024/01/18 11:42:40;;;;;;;12.68;4.03;;;18.70;1.00;;;;;;6224758;23;20070;-78
2024/01/18 11:45:17;;;;;;;18.33;3.72;;;18.70;1.00;;;;;;6187301;23;20020;-77
2024/01/18 11:47:45;;;;;;;12.20;4.20;;;18.80;1.00;;;;;;6223329;23;20016;-76
2024/01/18 11:50:14;;;;;;;9.82;3.45;;;18.90;1.00;;;;;;6187721;23;20028;-78
2024/01/18 11:52:43;;;;;;;13.30;4.43;;;18.80;1.00;;;;;;6225209;23;20036;-77
2024/01/18 11:55:14;;;;;;;15.93;4.43;;;18.80;1.00;;;;;;6227770;23;20068;-77
2024/01/18 11:57:41;;;;;;;14.85;4.20;;;18.90;1.00;;;;;;6235454;23;20016;-76
2024/01/18 12:00:10;;;;;;;21.05;4.18;;;18.90;1.00;;;;;;6234068;23;20070;-76
2024/01/18 12:02:43;;;;;;;14.98;4.10;;;19.00;1.00;;;;;;6240009;23;20013;-77
2024/01/18 12:05:11;;;;;;;15.02;4.18;;;19.10;1.00;;;;;;6231675;23;20091;-78
2024/01/18 12:07:43;;;;;;;12.82;4.60;;;19.10;1.00;;;;;;6231453;23;20020;-79
2024/01/18 12:10:11;;;;;;;13.90;4.32;;;19.20;1.00;;;;;;6229252;23;20017;-77
2024/01/18 12:12:41;;;;;;;17.33;4.05;;;19.20;1.00;;;;;;6238796;23;20013;-75
2024/01/18 12:15:09;;;;;;;15.50;3.83;;;19.30;1.00;;;;;;6234776;23;20020;-78
2024/01/18 12:17:37;;;;;;;14.32;3.78;;;19.30;1.00;;;;;;6236642;23;20104;-75
2024/01/18 12:20:14;;;;;;;15.38;3.92;;;19.40;1.00;;;;;;6208188;23;20117;-75
2024/01/18 12:22:43;;;;;;;9.38;2.80;;;19.40;1.00;;;;;;6245004;23;20017;-78
2024/01/18 12:25:10;;;;;;;11.27;3.33;;;19.40;1.00;;;;;;6207419;23;20013;-76
2024/01/18 12:27:38;;;;;;;14.75;4.07;;;19.50;1.00;;;;;;6246245;23;20031;-76
2024/01/18 12:30:08;;;;;;;9.35;3.05;;;19.60;1.00;;;;;;6243050;23;20016;-77
2024/01/18 12:32:37;;;;;;;12.93;3.22;;;19.70;1.00;;;;;;6197820;23;20515;-76
2024/01/18 12:35:07;;;;;;;13.82;3.25;;;19.70;1.00;;;;;;6227460;23;20013;-78
2024/01/18 12:37:35;;;;;;;9.43;2.97;;;19.90;1.00;;;;;;6229365;23;20063;-78
2024/01/18 12:40:04;;;;;;;13.98;3.17;;;20.00;1.00;;;;;;6192042;23;20034;-76
2024/01/18 12:42:34;;;;;;;9.05;2.88;;;20.10;1.00;;;;;;6190969;23;20500;-76
2024/01/18 12:45:04;;;;;;;12.07;3.60;;;20.10;1.00;;;;;;6228014;23;20013;-79
2024/01/18 12:47:32;;;;;;;11.65;3.60;;;20.00;1.00;;;;;;6230049;23;20036;-76
2024/01/18 12:49:59;;;;;;;18.75;5.22;;;20.00;1.00;;;;;;6232000;23;20104;-76
2024/01/18 12:52:32;;;;;;;11.82;3.70;;;19.90;1.00;;;;;;6239009;23;20039;-75